CheckWX is a tool to help pilots better visualize weather data.  It is not intended as a substitute for an official pre-flight weather briefing.

03:58:03 UTC

KGUL METAR
Gunnison
Gunnison, Texas, USA
Current

43 mins ago

KGUL 270315Z AUTO 11014KT 10SM CLR 26/21 A3005 RMK A01
Observed
May-27 @ 03:15 UTC
Wind
  • 110° at 14 KTS
Visibility
10 SM
Flight Rules
VFR
Cloud Levels
  • Clear skies
Temperature
26°C / 79°F
Dewpoint
21°C / 70°F
Humidity
74%
Altimeter
30.05" Hg
Pressure
1017.62 hPa
Previous

1 hour ago

KGUL 270255Z AUTO 11013KT 10SM CLR 26/21 A3005 RMK A01
Observed
May-27 @ 02:55 UTC
Wind
  • 110° at 13 KTS
Visibility
10 SM
Flight Rules
VFR
Cloud Levels
  • Clear skies
Temperature
26°C / 79°F
Dewpoint
21°C / 70°F
Humidity
74%
Altimeter
30.05" Hg
Pressure
1017.62 hPa
Previous

1 hour ago

KGUL 270235Z AUTO 11011KT 10SM 26/22 A3004 RMK A01
Observed
May-27 @ 02:35 UTC
Wind
  • 110° at 11 KTS
Visibility
10 SM
Temperature
26°C / 79°F
Dewpoint
22°C / 72°F
Humidity
79%
Altimeter
30.04" Hg
Pressure
1017.32 hPa